createdAt,value
2022-12-13T00:01:41.720Z,100862.59
2022-12-13T00:04:08.581Z,100861.44
2022-12-13T00:06:33.110Z,100862.00
2022-12-13T00:08:58.662Z,100856.53
2022-12-13T00:11:22.453Z,100842.59
2022-12-13T00:13:47.044Z,100847.38
2022-12-13T00:16:15.063Z,100850.53
2022-12-13T00:18:39.013Z,100844.97
2022-12-13T00:21:07.190Z,100845.91
2022-12-13T00:23:30.781Z,100848.72
2022-12-13T00:25:55.829Z,100847.50
2022-12-13T00:28:19.451Z,100841.56
2022-12-13T00:30:43.358Z,100849.56
2022-12-13T00:33:07.692Z,100846.72
2022-12-13T00:35:31.351Z,100845.75
2022-12-13T00:37:54.973Z,100836.16
2022-12-13T00:40:18.760Z,100823.47
2022-12-13T00:42:43.761Z,100828.91
2022-12-13T00:45:09.606Z,100823.56
2022-12-13T00:47:33.217Z,100825.56
2022-12-13T00:49:56.934Z,100816.13
2022-12-13T00:52:20.520Z,100823.78
2022-12-13T00:54:44.169Z,100820.06
2022-12-13T00:57:07.756Z,100816.75
2022-12-13T00:59:32.867Z,100821.63
2022-12-13T01:01:56.453Z,100821.41
2022-12-13T01:04:20.169Z,100821.88
2022-12-13T01:06:46.187Z,100818.72
2022-12-13T01:09:18.994Z,100824.75
2022-12-13T01:11:42.641Z,100815.69
2022-12-13T01:14:06.305Z,100823.72
2022-12-13T01:16:31.477Z,100819.69
2022-12-13T01:18:56.038Z,100818.78
2022-12-13T01:21:22.149Z,100820.16
2022-12-13T01:23:46.877Z,100818.72
2022-12-13T01:26:13.654Z,100817.31
2022-12-13T01:28:37.512Z,100813.53
2022-12-13T01:31:04.411Z,100812.03
2022-12-13T01:33:30.972Z,100813.59
2022-12-13T01:35:55.192Z,100812.59
2022-12-13T01:38:19.266Z,100817.88
2022-12-13T01:40:46.543Z,100807.00
2022-12-13T01:43:14.423Z,100815.25
2022-12-13T01:45:38.699Z,100812.63
2022-12-13T01:48:06.665Z,100805.38
2022-12-13T01:50:37.551Z,100803.88
2022-12-13T01:53:02.055Z,100802.06
2022-12-13T01:55:28.831Z,100804.06
2022-12-13T01:57:55.122Z,100800.75
2022-12-13T02:00:19.198Z,100803.00
2022-12-13T02:02:43.259Z,100800.09
2022-12-13T02:05:12.791Z,100800.88
2022-12-13T02:07:40.283Z,100801.56
2022-12-13T02:10:08.803Z,100804.44
2022-12-13T02:12:36.259Z,100798.06
2022-12-13T02:15:01.282Z,100793.47
2022-12-13T02:17:45.323Z,100788.59
2022-12-13T02:21:11.572Z,100798.63
2022-12-13T02:24:19.917Z,100795.41
2022-12-13T02:27:03.157Z,100800.91
2022-12-13T02:30:17.223Z,100796.84
2022-12-13T02:32:57.705Z,100798.13
2022-12-13T02:35:28.465Z,100805.25
2022-12-13T02:38:01.864Z,100808.69
2022-12-13T02:40:29.459Z,100797.50
2022-12-13T02:43:00.839Z,100802.00
2022-12-13T02:45:31.455Z,100796.78
2022-12-13T02:47:59.327Z,100798.13
2022-12-13T02:50:24.780Z,100795.22
2022-12-13T02:52:49.827Z,100808.34
2022-12-13T02:55:17.370Z,100801.25
2022-12-13T02:57:44.828Z,100805.78
2022-12-13T03:00:12.485Z,100791.84
2022-12-13T03:02:50.149Z,100786.53
2022-12-13T03:05:57.513Z,100794.19
2022-12-13T03:08:25.770Z,100795.88
2022-12-13T03:11:00.139Z,100795.63
2022-12-13T03:13:38.400Z,100791.66
2022-12-13T03:16:14.940Z,100801.47
2022-12-13T03:18:47.800Z,100788.53
2022-12-13T03:21:15.600Z,100792.84
2022-12-13T03:23:39.616Z,100792.75
2022-12-13T03:26:07.791Z,100791.00
2022-12-13T03:28:31.899Z,100785.75
2022-12-13T03:30:55.558Z,100788.34
2022-12-13T03:33:19.230Z,100785.63
2022-12-13T03:35:45.792Z,100784.94
2022-12-13T03:38:12.036Z,100790.13
2022-12-13T03:40:36.669Z,100779.28
2022-12-13T03:43:00.644Z,100784.69
2022-12-13T03:45:24.272Z,100776.25
2022-12-13T03:47:47.983Z,100766.81
2022-12-13T03:50:26.695Z,100770.16
2022-12-13T03:52:52.059Z,100770.66
2022-12-13T03:55:17.324Z,100776.94
2022-12-13T03:57:41.127Z,100769.00
2022-12-13T04:00:07.588Z,100780.16
2022-12-13T04:02:35.821Z,100774.13
2022-12-13T04:05:00.767Z,100775.66
2022-12-13T04:07:24.690Z,100772.56
2022-12-13T04:09:48.308Z,100764.19
2022-12-13T04:12:30.856Z,100767.41
2022-12-13T04:14:54.508Z,100761.28
2022-12-13T04:17:18.069Z,100758.34
2022-12-13T04:19:41.741Z,100760.31
2022-12-13T04:22:05.469Z,100757.94
2022-12-13T04:24:31.197Z,100762.38
2022-12-13T04:26:55.865Z,100768.34
2022-12-13T04:29:20.979Z,100766.38
2022-12-13T04:31:44.839Z,100761.38
2022-12-13T04:34:08.602Z,100760.34
2022-12-13T04:36:32.958Z,100753.00
2022-12-13T04:38:56.640Z,100751.38
2022-12-13T04:41:24.389Z,100755.81
2022-12-13T04:43:53.544Z,100759.66
2022-12-13T04:46:18.528Z,100763.47
2022-12-13T04:48:42.193Z,100764.19
2022-12-13T04:51:06.045Z,100768.16
2022-12-13T04:53:30.049Z,100767.41
2022-12-13T04:55:53.881Z,100778.88
2022-12-13T04:58:22.863Z,100772.47
2022-12-13T05:00:47.526Z,100773.75
2022-12-13T05:03:13.074Z,100774.47
2022-12-13T05:05:39.874Z,100778.06
2022-12-13T05:08:03.626Z,100778.88
2022-12-13T05:10:34.245Z,100778.66
2022-12-13T05:13:01.539Z,100774.53
2022-12-13T05:15:25.215Z,100770.47
2022-12-13T05:17:48.855Z,100776.47
2022-12-13T05:20:14.143Z,100774.88
2022-12-13T05:22:38.119Z,100768.91
2022-12-13T05:25:01.835Z,100776.97
2022-12-13T05:27:26.945Z,100771.78
2022-12-13T05:29:52.073Z,100772.22
2022-12-13T05:32:18.705Z,100768.94
2022-12-13T05:34:42.491Z,100765.00
2022-12-13T05:37:07.729Z,100764.75
2022-12-13T05:39:31.376Z,100759.94
2022-12-13T05:41:55.942Z,100761.31
2022-12-13T05:44:25.870Z,100759.94
2022-12-13T05:46:49.479Z,100761.34
2022-12-13T05:49:13.659Z,100767.50
2022-12-13T05:51:37.358Z,100763.25
2022-12-13T05:54:02.559Z,100768.09
2022-12-13T05:56:26.285Z,100769.56
2022-12-13T05:58:53.443Z,100769.84
2022-12-13T06:01:18.760Z,100771.84
2022-12-13T06:03:43.266Z,100775.06
2022-12-13T06:06:09.280Z,100773.59
2022-12-13T06:08:33.632Z,100774.53
2022-12-13T06:11:10.760Z,100772.34
2022-12-13T06:13:35.893Z,100771.75
2022-12-13T06:16:08.456Z,100769.59
2022-12-13T06:18:47.470Z,100779.78
2022-12-13T06:21:14.660Z,100786.56
2022-12-13T06:23:38.508Z,100789.00
2022-12-13T06:26:07.280Z,100790.00
2022-12-13T06:28:30.935Z,100798.63
2022-12-13T06:30:55.610Z,100796.53
2022-12-13T06:33:23.453Z,100796.63
2022-12-13T06:35:47.477Z,100796.31
2022-12-13T06:38:12.039Z,100795.34
2022-12-13T06:40:35.911Z,100794.00
2022-12-13T06:43:01.017Z,100795.41
2022-12-13T06:45:25.456Z,100800.69
2022-12-13T06:47:49.143Z,100802.13
2022-12-13T06:50:12.749Z,100809.66
2022-12-13T06:52:36.640Z,100809.75
2022-12-13T06:55:00.277Z,100812.91
2022-12-13T06:57:24.001Z,100816.91
2022-12-13T06:59:49.051Z,100814.13
2022-12-13T07:02:24.817Z,100810.09
2022-12-13T07:04:49.625Z,100812.16
2022-12-13T07:07:13.291Z,100820.31
2022-12-13T07:09:37.081Z,100821.34
2022-12-13T07:12:01.616Z,100823.22
2022-12-13T07:14:28.927Z,100833.66
2022-12-13T07:16:59.608Z,100832.81
2022-12-13T07:19:26.880Z,100836.28
2022-12-13T07:22:01.447Z,100841.78
2022-12-13T07:24:25.087Z,100835.22
2022-12-13T07:26:48.817Z,100844.50
2022-12-13T07:29:12.597Z,100833.72
2022-12-13T07:31:46.026Z,100840.56
2022-12-13T07:34:15.474Z,100844.44
2022-12-13T07:36:39.406Z,100841.41
2022-12-13T07:39:02.988Z,100843.88
2022-12-13T07:41:28.119Z,100846.31
2022-12-13T07:43:55.087Z,100843.75
2022-12-13T07:46:31.775Z,100845.94
2022-12-13T07:49:01.780Z,100845.63
2022-12-13T07:51:27.205Z,100847.63
2022-12-13T07:53:50.890Z,100851.19
2022-12-13T07:56:15.256Z,100861.28
2022-12-13T07:58:39.146Z,100854.75
2022-12-13T08:01:07.805Z,100851.97
2022-12-13T08:03:31.912Z,100844.34
2022-12-13T08:06:01.796Z,100851.44
2022-12-13T08:08:30.873Z,100852.34
2022-12-13T08:10:55.407Z,100856.50
2022-12-13T08:13:25.189Z,100863.38
2022-12-13T08:15:48.852Z,100863.66
2022-12-13T08:18:13.078Z,100861.41
2022-12-13T08:20:37.630Z,100861.13
2022-12-13T08:23:02.874Z,100863.94
2022-12-13T08:25:28.333Z,100862.22
2022-12-13T08:27:51.990Z,100870.72
2022-12-13T08:30:22.848Z,100871.78
2022-12-13T08:32:47.425Z,100865.19
2022-12-13T08:35:11.255Z,100867.78
2022-12-13T08:37:34.963Z,100870.75
2022-12-13T08:39:58.577Z,100871.25
2022-12-13T08:42:25.014Z,100871.59
2022-12-13T08:44:50.391Z,100877.00
2022-12-13T08:47:23.817Z,100879.13
2022-12-13T08:49:49.132Z,100881.13
2022-12-13T08:52:12.749Z,100887.19
2022-12-13T08:54:36.402Z,100879.25
2022-12-13T08:57:00.032Z,100877.97
2022-12-13T08:59:26.741Z,100889.88
2022-12-13T09:01:53.612Z,100882.88
2022-12-13T09:04:18.863Z,100890.81
2022-12-13T09:06:55.528Z,100880.19
2022-12-13T09:09:19.097Z,100890.81
2022-12-13T09:11:42.961Z,100889.06
2022-12-13T09:14:07.051Z,100889.28
2022-12-13T09:16:39.184Z,100887.78
2022-12-13T09:19:06.548Z,100889.91
2022-12-13T09:21:46.583Z,100881.00
2022-12-13T09:24:23.472Z,100888.38
2022-12-13T09:26:48.530Z,100891.66
2022-12-13T09:29:20.977Z,100885.75
2022-12-13T09:31:51.132Z,100889.44
2022-12-13T09:34:16.949Z,100894.13
2022-12-13T09:36:40.592Z,100896.72
2022-12-13T09:39:04.424Z,100890.13
2022-12-13T09:41:34.237Z,100886.81
2022-12-13T09:44:32.815Z,100890.81
2022-12-13T09:47:01.085Z,100886.50
2022-12-13T09:49:35.238Z,100886.50
2022-12-13T09:52:10.902Z,100882.72
2022-12-13T09:54:36.510Z,100881.56
2022-12-13T09:57:00.390Z,100874.50
2022-12-13T09:59:30.540Z,100877.06
2022-12-13T10:01:55.946Z,100874.41
2022-12-13T10:04:20.179Z,100879.25
2022-12-13T10:06:44.022Z,100877.03
2022-12-13T10:09:12.479Z,100877.19
2022-12-13T10:11:36.146Z,100878.19
2022-12-13T10:14:05.819Z,100884.41
2022-12-13T10:16:37.945Z,100886.13
2022-12-13T10:19:05.038Z,100880.69
2022-12-13T10:21:35.659Z,100882.22
2022-12-13T10:24:32.967Z,100880.22
2022-12-13T10:26:56.099Z,100873.41
2022-12-13T10:29:19.789Z,100862.19
2022-12-13T10:31:46.206Z,100873.66
2022-12-13T10:34:22.877Z,100870.13
2022-12-13T10:36:46.565Z,100869.56
2022-12-13T10:39:19.219Z,100865.59
2022-12-13T10:41:42.918Z,100870.09
2022-12-13T10:44:26.538Z,100870.41
2022-12-13T10:47:07.890Z,100861.91
2022-12-13T10:49:41.087Z,100867.28
2022-12-13T10:52:05.535Z,100868.03
2022-12-13T10:54:38.710Z,100875.03
2022-12-13T10:57:13.446Z,100866.31
2022-12-13T10:59:39.628Z,100857.84
2022-12-13T11:02:04.575Z,100855.78
2022-12-13T11:04:32.114Z,100862.38
2022-12-13T11:06:59.115Z,100857.84
2022-12-13T11:09:38.945Z,100855.94
2022-12-13T11:12:12.923Z,100855.03
2022-12-13T11:14:50.000Z,100852.47
2022-12-13T11:17:19.921Z,100839.41
2022-12-13T11:19:50.579Z,100854.00
2022-12-13T11:22:25.579Z,100845.94
2022-12-13T11:24:54.154Z,100847.25
2022-12-13T11:27:39.942Z,100844.59
2022-12-13T11:30:13.582Z,100838.56
2022-12-13T11:33:02.593Z,100842.13
2022-12-13T11:35:35.150Z,100839.81
2022-12-13T11:38:17.331Z,100838.03
2022-12-13T11:40:46.069Z,100839.88
2022-12-13T11:43:21.574Z,100837.84
2022-12-13T11:45:54.223Z,100837.59
2022-12-13T11:48:25.483Z,100841.31
2022-12-13T11:50:52.241Z,100840.47
2022-12-13T11:53:28.412Z,100847.06
2022-12-13T11:55:57.684Z,100841.69
2022-12-13T12:01:19.016Z,100843.88
2022-12-13T12:03:49.473Z,100839.72
2022-12-13T12:06:21.431Z,100844.34
2022-12-13T12:08:54.967Z,100841.22
2022-12-13T12:11:27.955Z,100847.00
2022-12-13T12:13:55.669Z,100841.19
2022-12-13T12:16:32.264Z,100842.78
2022-12-13T12:18:56.219Z,100843.47
2022-12-13T12:22:12.303Z,100841.03
2022-12-13T12:24:30.897Z,100834.34
2022-12-13T12:27:22.075Z,100843.41
2022-12-13T12:30:04.575Z,100845.06
2022-12-13T12:32:38.144Z,100844.03
2022-12-13T12:35:26.846Z,100839.16
2022-12-13T12:37:58.229Z,100848.31
2022-12-13T12:43:38.424Z,100842.53
2022-12-13T12:46:25.141Z,100834.25
2022-12-13T12:49:31.215Z,100842.22
2022-12-13T12:52:03.197Z,100840.53
2022-12-13T12:54:44.537Z,100835.34
2022-12-13T12:57:18.968Z,100826.88
2022-12-13T13:00:01.666Z,100841.88
2022-12-13T13:02:34.226Z,100839.69
2022-12-13T13:05:04.705Z,100840.50
2022-12-13T13:07:39.786Z,100840.53
2022-12-13T13:10:26.443Z,100848.31
2022-12-13T13:12:51.094Z,100840.97
2022-12-13T13:15:56.895Z,100846.75
2022-12-13T13:18:47.077Z,100846.69
2022-12-13T13:21:36.643Z,100845.66
2022-12-13T13:24:25.521Z,100835.78
2022-12-13T13:26:51.811Z,100841.31
2022-12-13T13:29:43.643Z,100843.78
2022-12-13T13:32:30.368Z,100840.50
2022-12-13T13:35:00.830Z,100838.00
2022-12-13T13:37:47.993Z,100840.91
2022-12-13T13:40:32.276Z,100838.41
2022-12-13T13:43:19.384Z,100842.91
2022-12-13T13:46:11.636Z,100845.25
2022-12-13T13:48:55.845Z,100837.91
2022-12-13T13:52:24.316Z,100843.78
2022-12-13T13:55:27.616Z,100844.13
2022-12-13T13:58:36.869Z,100841.63
2022-12-13T14:01:30.760Z,100842.72
2022-12-13T14:04:48.883Z,100841.81
2022-12-13T14:08:02.622Z,100829.19
2022-12-13T14:10:51.760Z,100830.56
2022-12-13T14:14:06.541Z,100827.91
2022-12-13T14:17:32.799Z,100825.19
2022-12-13T14:20:45.039Z,100823.13
2022-12-13T14:23:21.583Z,100828.16
2022-12-13T14:26:29.690Z,100840.72
2022-12-13T14:28:57.763Z,100827.59
2022-12-13T14:31:25.819Z,100833.53
2022-12-13T14:33:53.597Z,100830.84
2022-12-13T14:36:19.819Z,100834.50
2022-12-13T14:38:43.542Z,100834.47
2022-12-13T14:41:08.931Z,100836.75
2022-12-13T14:43:35.495Z,100832.47
2022-12-13T14:46:01.273Z,100826.44
2022-12-13T14:48:28.917Z,100834.69
2022-12-13T14:50:55.144Z,100832.84
2022-12-13T14:53:27.759Z,100832.84
2022-12-13T14:56:07.614Z,100838.94
2022-12-13T14:58:31.396Z,100830.91
2022-12-13T15:00:57.803Z,100835.28
2022-12-13T15:03:25.408Z,100837.81
2022-12-13T15:05:55.809Z,100835.28
2022-12-13T15:08:21.183Z,100838.66
2022-12-13T15:10:49.159Z,100836.38
2022-12-13T15:13:29.188Z,100835.00
2022-12-13T15:15:56.984Z,100826.94
2022-12-13T15:18:26.557Z,100841.81
2022-12-13T15:21:01.945Z,100839.81
2022-12-13T15:23:41.724Z,100842.03
2022-12-13T15:26:27.949Z,100841.38
2022-12-13T15:28:58.110Z,100840.25
2022-12-13T15:31:22.229Z,100838.13
2022-12-13T15:33:48.601Z,100840.88
2022-12-13T15:36:18.930Z,100841.63
2022-12-13T15:39:01.662Z,100838.34
2022-12-13T15:41:30.063Z,100840.44
2022-12-13T15:43:56.367Z,100837.59
2022-12-13T15:46:26.910Z,100839.66
2022-12-13T15:48:52.086Z,100834.41
2022-12-13T15:51:28.902Z,100837.34
2022-12-13T15:54:08.346Z,100842.06
2022-12-13T15:56:34.485Z,100842.00
2022-12-13T15:58:58.257Z,100836.94
2022-12-13T16:01:29.164Z,100833.47
2022-12-13T16:03:53.225Z,100835.38
2022-12-13T16:06:22.791Z,100848.47
2022-12-13T16:08:49.516Z,100831.66
2022-12-13T16:11:13.149Z,100836.91
2022-12-13T16:13:39.960Z,100833.44
2022-12-13T16:16:26.712Z,100827.50
2022-12-13T16:18:56.828Z,100826.81
2022-12-13T16:21:21.893Z,100827.97
2022-12-13T16:23:48.829Z,100828.22
2022-12-13T16:26:13.843Z,100828.28
2022-12-13T16:28:37.880Z,100826.72
2022-12-13T16:31:13.982Z,100824.38
2022-12-13T16:33:37.906Z,100821.56
2022-12-13T16:36:01.577Z,100820.31
2022-12-13T16:38:27.505Z,100816.22
2022-12-13T16:40:55.339Z,100815.41
2022-12-13T16:43:20.741Z,100816.75
2022-12-13T16:45:47.622Z,100815.84
2022-12-13T16:48:12.214Z,100813.44
2022-12-13T16:50:37.215Z,100816.41
2022-12-13T16:53:01.120Z,100816.78
2022-12-13T16:55:28.825Z,100816.59
2022-12-13T16:58:00.822Z,100813.91
2022-12-13T17:00:24.760Z,100817.16
2022-12-13T17:02:48.548Z,100817.50
2022-12-13T17:05:12.198Z,100815.78
2022-12-13T17:07:36.594Z,100819.50
2022-12-13T17:10:01.181Z,100816.72
2022-12-13T17:12:27.553Z,100820.38
2022-12-13T17:14:51.221Z,100816.88
2022-12-13T17:17:17.716Z,100813.50
2022-12-13T17:19:41.753Z,100821.47
2022-12-13T17:22:05.364Z,100825.91
2022-12-13T17:24:29.025Z,100819.59
2022-12-13T17:26:54.809Z,100824.38
2022-12-13T17:29:20.334Z,100821.00
2022-12-13T17:31:44.791Z,100815.94
2022-12-13T17:34:08.524Z,100813.31
2022-12-13T17:36:32.353Z,100806.50
2022-12-13T17:38:55.997Z,100806.63
2022-12-13T17:41:19.660Z,100804.16
2022-12-13T17:43:44.299Z,100802.53
2022-12-13T17:46:13.439Z,100801.97
2022-12-13T17:48:40.706Z,100806.28
2022-12-13T17:51:05.521Z,100798.41
2022-12-13T17:53:29.374Z,100807.31
2022-12-13T17:55:57.953Z,100802.63
2022-12-13T17:58:21.703Z,100801.56
2022-12-13T18:00:45.266Z,100802.81
2022-12-13T18:03:10.305Z,100805.31
2022-12-13T18:05:36.886Z,100795.59
2022-12-13T18:08:00.737Z,100802.63
2022-12-13T18:10:29.502Z,100797.44
2022-12-13T18:12:53.833Z,100798.56
2022-12-13T18:15:17.488Z,100803.88
2022-12-13T18:18:10.173Z,100800.41
2022-12-13T18:20:26.347Z,100797.00
2022-12-13T18:22:51.573Z,100797.97
2022-12-13T18:25:15.509Z,100798.91
2022-12-13T18:27:39.063Z,100807.69
2022-12-13T18:30:03.005Z,100800.97
2022-12-13T18:32:26.615Z,100803.72
2022-12-13T18:34:50.286Z,100810.66
2022-12-13T18:37:19.744Z,100802.72
2022-12-13T18:39:43.967Z,100808.03
2022-12-13T18:42:18.676Z,100803.22
2022-12-13T18:44:42.264Z,100804.84
2022-12-13T18:47:21.151Z,100798.75
2022-12-13T18:49:54.603Z,100800.38
2022-12-13T18:52:20.542Z,100797.94
2022-12-13T18:54:46.030Z,100805.69
2022-12-13T18:57:19.418Z,100804.78
2022-12-13T18:59:43.648Z,100798.81
2022-12-13T19:02:18.279Z,100800.63
2022-12-13T19:04:43.066Z,100805.94
2022-12-13T19:07:20.729Z,100797.59
2022-12-13T19:09:44.346Z,100800.22
2022-12-13T19:12:18.254Z,100802.84
2022-12-13T19:14:41.943Z,100805.47
2022-12-13T19:17:05.631Z,100803.75
2022-12-13T19:19:29.363Z,100804.69
2022-12-13T19:21:53.113Z,100803.06
2022-12-13T19:24:18.289Z,100804.06
2022-12-13T19:26:42.005Z,100792.00
2022-12-13T19:29:05.745Z,100799.00
2022-12-13T19:31:32.344Z,100798.19
2022-12-13T19:33:58.002Z,100798.09
2022-12-13T19:36:21.618Z,100801.88
2022-12-13T19:38:46.174Z,100791.28
2022-12-13T19:41:14.232Z,100796.38
2022-12-13T19:43:38.170Z,100793.91
2022-12-13T19:46:03.963Z,100801.72
2022-12-13T19:48:27.595Z,100802.72
2022-12-13T19:50:51.266Z,100801.88
2022-12-13T19:53:14.906Z,100800.84
2022-12-13T19:55:43.619Z,100807.13
2022-12-13T19:58:08.619Z,100796.53
2022-12-13T20:00:32.356Z,100804.59
2022-12-13T20:02:56.116Z,100802.06
2022-12-13T20:05:20.602Z,100801.28
2022-12-13T20:07:44.474Z,100799.06
2022-12-13T20:10:09.876Z,100804.94
2022-12-13T20:12:37.197Z,100795.31
2022-12-13T20:15:05.052Z,100796.41
2022-12-13T20:17:28.690Z,100790.97
2022-12-13T20:19:52.355Z,100798.09
2022-12-13T20:22:16.866Z,100794.75
2022-12-13T20:24:40.508Z,100790.44
2022-12-13T20:27:04.181Z,100797.56
2022-12-13T20:29:28.069Z,100786.97
2022-12-13T20:31:54.290Z,100780.97
2022-12-13T20:34:18.067Z,100781.59
2022-12-13T20:36:42.798Z,100774.75
2022-12-13T20:39:08.235Z,100787.97
2022-12-13T20:41:34.436Z,100782.00
2022-12-13T20:44:00.199Z,100778.34
2022-12-13T20:46:24.925Z,100774.19
2022-12-13T20:48:51.343Z,100782.00
2022-12-13T20:51:17.231Z,100786.44
2022-12-13T20:53:44.565Z,100778.75
2022-12-13T20:56:11.974Z,100780.25
2022-12-13T20:58:39.888Z,100779.44
2022-12-13T21:01:05.499Z,100778.53
2022-12-13T21:03:29.378Z,100780.25
2022-12-13T21:05:54.599Z,100774.41
2022-12-13T21:08:36.697Z,100773.34
2022-12-13T21:11:20.500Z,100776.94
2022-12-13T21:13:44.217Z,100774.50
2022-12-13T21:16:14.609Z,100772.03
2022-12-13T21:18:38.308Z,100768.84
2022-12-13T21:21:03.344Z,100761.56
2022-12-13T21:23:27.314Z,100768.47
2022-12-13T21:25:53.471Z,100764.09
2022-12-13T21:28:17.147Z,100763.28
2022-12-13T21:30:40.743Z,100764.03
2022-12-13T21:33:04.468Z,100753.78
2022-12-13T21:35:28.111Z,100749.63
2022-12-13T21:37:57.783Z,100743.50
2022-12-13T21:40:29.291Z,100745.88
2022-12-13T21:42:52.869Z,100748.75
2022-12-13T21:45:16.684Z,100744.47
2022-12-13T21:47:40.240Z,100742.91
2022-12-13T21:50:04.179Z,100737.53
2022-12-13T21:52:27.787Z,100736.59
2022-12-13T21:55:03.500Z,100731.63
2022-12-13T21:57:53.774Z,100735.13
2022-12-13T22:00:18.064Z,100731.66
2022-12-13T22:02:41.735Z,100728.19
2022-12-13T22:05:06.249Z,100721.31
2022-12-13T22:07:31.618Z,100720.47
2022-12-13T22:09:57.686Z,100723.25
2022-12-13T22:12:24.326Z,100725.03
2022-12-13T22:14:48.600Z,100731.00
2022-12-13T22:17:12.544Z,100716.31
2022-12-13T22:19:36.205Z,100706.59
2022-12-13T22:21:59.818Z,100710.09
2022-12-13T22:24:23.484Z,100714.66
2022-12-13T22:26:48.502Z,100712.91
2022-12-13T22:29:14.128Z,100700.81
2022-12-13T22:31:37.828Z,100703.38
2022-12-13T22:34:01.586Z,100701.47
2022-12-13T22:36:25.774Z,100706.75
2022-12-13T22:38:50.823Z,100708.72
2022-12-13T22:41:16.134Z,100701.88
2022-12-13T22:43:41.642Z,100693.94
2022-12-13T22:46:08.239Z,100693.84
2022-12-13T22:48:32.496Z,100693.09
2022-12-13T22:50:56.066Z,100687.72
2022-12-13T22:53:20.083Z,100682.72
2022-12-13T22:55:43.670Z,100688.13
2022-12-13T22:58:10.420Z,100686.44
2022-12-13T23:00:35.504Z,100677.63
2022-12-13T23:02:59.301Z,100677.66
2022-12-13T23:05:22.924Z,100669.78
2022-12-13T23:07:48.582Z,100665.47
2022-12-13T23:10:32.930Z,100665.72
2022-12-13T23:13:04.269Z,100656.22
2022-12-13T23:15:27.941Z,100645.66
2022-12-13T23:17:52.929Z,100655.28
2022-12-13T23:20:16.813Z,100657.09
2022-12-13T23:22:40.476Z,100648.44
2022-12-13T23:25:04.140Z,100650.13
2022-12-13T23:27:27.822Z,100650.94
2022-12-13T23:29:51.613Z,100655.09
2022-12-13T23:32:15.469Z,100650.84
2022-12-13T23:34:40.525Z,100650.94
2022-12-13T23:37:04.155Z,100644.03
2022-12-13T23:39:28.022Z,100648.38
2022-12-13T23:41:52.075Z,100642.19
2022-12-13T23:44:15.958Z,100644.81
2022-12-13T23:46:39.965Z,100632.66
2022-12-13T23:49:05.895Z,100633.41
2022-12-13T23:51:31.120Z,100631.84
2022-12-13T23:53:54.913Z,100630.91
2022-12-13T23:56:18.935Z,100631.88
2022-12-13T23:58:44.544Z,100633.63
